createdAt,value
2018-07-22T00:00:33.900Z,18.50
2018-07-22T00:01:33.827Z,18.62
2018-07-22T00:02:33.781Z,18.50
2018-07-22T00:03:33.734Z,18.66
2018-07-22T00:04:33.688Z,18.65
2018-07-22T00:05:33.678Z,18.62
2018-07-22T00:06:33.600Z,18.65
2018-07-22T00:07:33.594Z,18.63
2018-07-22T00:08:33.512Z,18.47
2018-07-22T00:09:33.466Z,18.49
2018-07-22T00:10:33.421Z,18.37
2018-07-22T00:11:33.380Z,18.31
2018-07-22T00:12:33.366Z,18.25
2018-07-22T00:13:33.321Z,18.23
2018-07-22T00:14:33.247Z,18.25
2018-07-22T00:15:33.205Z,18.13
2018-07-22T00:16:33.156Z,18.18
2018-07-22T00:17:33.107Z,18.08
2018-07-22T00:18:33.099Z,18.11
2018-07-22T00:19:33.020Z,18.07
2018-07-22T00:20:32.974Z,17.86
2018-07-22T00:21:32.932Z,17.87
2018-07-22T00:22:32.888Z,17.94
2018-07-22T00:23:32.878Z,17.86
2018-07-22T00:24:32.798Z,17.92
2018-07-22T00:25:32.784Z,17.94
2018-07-22T00:26:32.709Z,17.76
2018-07-22T00:27:32.665Z,17.83
2018-07-22T00:28:32.616Z,17.82
2018-07-22T00:29:32.570Z,17.89
2018-07-22T00:30:32.576Z,17.85
2018-07-22T00:31:32.483Z,17.83
2018-07-22T00:32:32.439Z,17.94
2018-07-22T00:33:32.393Z,17.90
2018-07-22T00:34:32.347Z,17.80
2018-07-22T00:35:32.336Z,17.87
2018-07-22T00:36:32.262Z,17.82
2018-07-22T00:37:32.211Z,17.78
2018-07-22T00:38:32.198Z,17.72
2018-07-22T00:39:32.127Z,17.74
2018-07-22T00:40:32.075Z,17.83
2018-07-22T00:41:32.035Z,17.78
2018-07-22T00:42:31.991Z,17.76
2018-07-22T00:43:31.982Z,17.76
2018-07-22T00:44:31.900Z,17.78
2018-07-22T00:45:31.851Z,17.74
2018-07-22T00:46:31.808Z,17.76
2018-07-22T00:47:31.765Z,17.80
2018-07-22T00:48:31.749Z,17.87
2018-07-22T00:49:31.673Z,17.89
2018-07-22T00:50:31.628Z,17.87
2018-07-22T00:51:31.586Z,18.00
2018-07-22T00:52:31.589Z,18.01
2018-07-22T00:53:31.491Z,17.95
2018-07-22T00:54:31.447Z,17.98
2018-07-22T00:55:31.400Z,18.04
2018-07-22T00:56:31.357Z,18.13
2018-07-22T00:57:31.345Z,18.10
2018-07-22T00:58:31.266Z,18.07
2018-07-22T00:59:31.224Z,18.03
2018-07-22T01:00:31.172Z,18.11
2018-07-22T01:01:31.133Z,18.15
2018-07-22T01:02:31.130Z,18.03
2018-07-22T01:03:31.045Z,18.07
2018-07-22T01:04:30.992Z,18.15
2018-07-22T01:05:30.949Z,18.11
2018-07-22T01:06:30.931Z,18.16
2018-07-22T01:07:30.895Z,18.18
2018-07-22T01:08:30.847Z,18.26
2018-07-22T01:09:30.774Z,18.20
2018-07-22T01:10:30.765Z,18.05
2018-07-22T01:11:30.677Z,18.10
2018-07-22T01:12:30.634Z,18.08
2018-07-22T01:13:30.591Z,18.16
2018-07-22T01:14:30.546Z,18.13
2018-07-22T01:15:30.531Z,18.03
2018-07-22T01:16:30.456Z,18.07
2018-07-22T01:17:30.411Z,18.11
2018-07-22T01:18:30.366Z,18.01
2018-07-22T01:19:30.321Z,18.08
2018-07-22T01:20:30.305Z,17.98
2018-07-22T01:21:30.228Z,17.85
2018-07-22T01:22:30.182Z,17.85
2018-07-22T01:23:30.141Z,17.74
2018-07-22T01:24:30.097Z,17.71
2018-07-22T01:25:30.082Z,17.76
2018-07-22T01:26:30.012Z,17.72
2018-07-22T01:27:29.960Z,17.72
2018-07-22T01:28:29.956Z,17.70
2018-07-22T01:29:29.869Z,17.80
2018-07-22T01:30:29.822Z,17.78
2018-07-22T01:31:29.779Z,17.78
2018-07-22T01:32:29.733Z,17.85
2018-07-22T01:33:29.720Z,17.90
2018-07-22T01:34:29.644Z,17.90
2018-07-22T01:35:29.599Z,17.92
2018-07-22T01:36:29.552Z,17.90
2018-07-22T01:37:29.545Z,17.97
2018-07-22T01:38:29.463Z,18.03
2018-07-22T01:39:29.420Z,18.01
2018-07-22T01:40:29.374Z,18.04
2018-07-22T01:41:29.361Z,17.98
2018-07-22T01:42:29.284Z,18.05
2018-07-22T01:43:29.242Z,18.01
2018-07-22T01:44:29.191Z,18.08
2018-07-22T01:45:29.150Z,18.15
2018-07-22T01:46:29.144Z,18.03
2018-07-22T01:47:29.056Z,18.08
2018-07-22T01:48:29.012Z,18.00
2018-07-22T01:49:28.967Z,17.97
2018-07-22T01:50:28.925Z,18.13
2018-07-22T01:51:28.906Z,18.05
2018-07-22T01:52:28.833Z,18.01
2018-07-22T01:53:28.788Z,17.95
2018-07-22T01:54:28.748Z,18.01
2018-07-22T01:55:28.732Z,18.01
2018-07-22T01:56:28.649Z,18.01
2018-07-22T01:57:28.609Z,18.00
2018-07-22T01:58:28.563Z,18.03
2018-07-22T01:59:28.650Z,17.98
2018-07-22T02:00:28.473Z,17.97
2018-07-22T02:01:28.468Z,18.01
2018-07-22T02:02:28.379Z,18.05
2018-07-22T02:03:28.337Z,18.10
2018-07-22T02:04:28.327Z,18.01
2018-07-22T02:05:28.245Z,18.05
2018-07-22T02:06:28.208Z,18.01
2018-07-22T02:07:28.152Z,18.11
2018-07-22T02:08:28.112Z,18.07
2018-07-22T02:09:28.097Z,18.01
2018-07-22T02:10:28.020Z,18.03
2018-07-22T02:11:27.976Z,17.98
2018-07-22T02:12:27.930Z,17.94
2018-07-22T02:13:27.926Z,17.90
2018-07-22T02:14:27.838Z,17.89
2018-07-22T02:15:27.796Z,17.86
2018-07-22T02:16:27.751Z,17.85
2018-07-22T02:17:27.703Z,17.83
2018-07-22T02:18:27.690Z,17.82
2018-07-22T02:19:27.647Z,17.82
2018-07-22T02:20:27.568Z,17.85
2018-07-22T02:21:27.521Z,17.86
2018-07-22T02:22:27.511Z,17.83
2018-07-22T02:23:27.432Z,17.76
2018-07-22T02:24:27.387Z,17.76
2018-07-22T02:25:27.339Z,17.78
2018-07-22T02:26:27.295Z,17.80
2018-07-22T02:27:27.286Z,17.85
2018-07-22T02:28:27.207Z,17.82
2018-07-22T02:29:27.160Z,17.82
2018-07-22T02:30:27.115Z,17.79
2018-07-22T02:31:27.122Z,17.80
2018-07-22T02:32:27.025Z,17.86
2018-07-22T02:33:26.982Z,17.87
2018-07-22T02:34:26.933Z,17.86
2018-07-22T02:35:26.892Z,17.87
2018-07-22T02:36:26.880Z,17.83
2018-07-22T02:37:26.802Z,17.83
2018-07-22T02:38:26.752Z,17.85
2018-07-22T02:39:26.708Z,17.90
2018-07-22T02:40:26.666Z,17.89
2018-07-22T02:41:26.649Z,17.86
2018-07-22T02:42:26.610Z,17.82
2018-07-22T02:43:26.529Z,17.87
2018-07-22T02:44:26.482Z,17.87
2018-07-22T02:45:26.436Z,17.80
2018-07-22T02:46:26.398Z,17.82
2018-07-22T02:47:26.377Z,17.82
2018-07-22T02:48:26.300Z,17.80
2018-07-22T02:49:26.255Z,17.78
2018-07-22T02:50:26.211Z,17.82
2018-07-22T02:51:26.215Z,17.78
2018-07-22T02:52:26.154Z,17.78
2018-07-22T02:53:26.078Z,17.74
2018-07-22T02:54:26.035Z,17.79
2018-07-22T02:55:25.982Z,17.80
2018-07-22T02:56:25.972Z,17.72
2018-07-22T02:57:25.897Z,17.74
2018-07-22T02:58:25.876Z,17.80
2018-07-22T02:59:25.805Z,17.78
2018-07-22T03:00:25.755Z,17.78
2018-07-22T03:01:25.714Z,17.72
2018-07-22T03:02:25.668Z,17.78
2018-07-22T03:03:25.678Z,17.76
2018-07-22T03:04:25.576Z,17.68
2018-07-22T03:05:25.532Z,17.72
2018-07-22T03:06:25.485Z,17.72
2018-07-22T03:07:25.442Z,17.72
2018-07-22T03:08:25.445Z,17.74
2018-07-22T03:09:25.353Z,17.76
2018-07-22T03:10:25.305Z,17.68
2018-07-22T03:11:25.257Z,17.67
2018-07-22T03:12:25.211Z,17.60
2018-07-22T03:13:25.208Z,17.54
2018-07-22T03:14:25.127Z,17.59
2018-07-22T03:15:25.078Z,17.52
2018-07-22T03:16:25.035Z,17.54
2018-07-22T03:17:24.990Z,17.51
2018-07-22T03:18:24.982Z,17.51
2018-07-22T03:19:24.897Z,17.46
2018-07-22T03:20:24.849Z,17.56
2018-07-22T03:21:24.806Z,17.52
2018-07-22T03:22:24.759Z,17.56
2018-07-22T03:23:24.747Z,17.48
2018-07-22T03:24:24.669Z,17.52
2018-07-22T03:25:24.622Z,17.51
2018-07-22T03:26:24.580Z,17.56
2018-07-22T03:27:24.535Z,17.60
2018-07-22T03:28:24.520Z,17.59
2018-07-22T03:29:24.440Z,17.65
2018-07-22T03:30:24.400Z,17.63
2018-07-22T03:31:24.353Z,17.57
2018-07-22T03:32:24.305Z,17.65
2018-07-22T03:33:24.291Z,17.68
2018-07-22T03:34:24.216Z,17.74
2018-07-22T03:35:24.205Z,17.74
2018-07-22T03:36:24.131Z,17.67
2018-07-22T03:37:24.080Z,17.74
2018-07-22T03:38:24.037Z,17.72
2018-07-22T03:39:23.989Z,17.71
2018-07-22T03:40:23.976Z,17.72
2018-07-22T03:41:23.896Z,17.71
2018-07-22T03:42:23.885Z,17.71
2018-07-22T03:43:23.810Z,17.71
2018-07-22T03:44:23.763Z,17.76
2018-07-22T03:45:23.717Z,17.74
2018-07-22T03:46:23.707Z,17.65
2018-07-22T03:47:23.665Z,17.71
2018-07-22T03:48:23.579Z,17.72
2018-07-22T03:49:23.535Z,17.72
2018-07-22T03:50:23.491Z,17.68
2018-07-22T03:51:23.480Z,17.70
2018-07-22T03:52:23.398Z,17.72
2018-07-22T03:53:23.354Z,17.78
2018-07-22T03:54:23.309Z,17.71
2018-07-22T03:55:23.263Z,17.82
2018-07-22T03:56:23.249Z,17.74
2018-07-22T03:57:23.173Z,17.78
2018-07-22T03:58:23.126Z,17.70
2018-07-22T03:59:23.082Z,17.74
2018-07-22T04:00:23.068Z,17.78
2018-07-22T04:01:22.992Z,17.74
2018-07-22T04:02:22.944Z,17.79
2018-07-22T04:03:22.900Z,17.78
2018-07-22T04:04:22.857Z,17.72
2018-07-22T04:05:22.853Z,17.70
2018-07-22T04:06:22.764Z,17.71
2018-07-22T04:07:22.747Z,17.71
2018-07-22T04:08:22.673Z,17.59
2018-07-22T04:09:22.626Z,17.70
2018-07-22T04:10:22.612Z,17.56
2018-07-22T04:11:22.538Z,17.65
2018-07-22T04:12:22.491Z,17.70
2018-07-22T04:13:22.451Z,17.59
2018-07-22T04:14:22.402Z,17.60
2018-07-22T04:15:22.386Z,17.63
2018-07-22T04:16:22.311Z,17.59
2018-07-22T04:17:22.265Z,17.56
2018-07-22T04:18:22.220Z,17.51
2018-07-22T04:19:22.172Z,17.57
2018-07-22T04:20:22.159Z,17.49
2018-07-22T04:21:22.093Z,17.48
2018-07-22T04:22:22.037Z,17.52
2018-07-22T04:23:21.992Z,17.59
2018-07-22T04:24:21.949Z,17.59
2018-07-22T04:25:21.933Z,17.52
2018-07-22T04:26:21.856Z,17.63
2018-07-22T04:27:21.811Z,17.52
2018-07-22T04:28:21.764Z,17.63
2018-07-22T04:29:21.717Z,17.68
2018-07-22T04:30:21.710Z,17.60
2018-07-22T04:31:21.668Z,17.60
2018-07-22T04:32:21.582Z,17.68
2018-07-22T04:33:21.536Z,17.59
2018-07-22T04:34:21.522Z,17.56
2018-07-22T04:35:21.446Z,17.60
2018-07-22T04:36:21.401Z,17.54
2018-07-22T04:37:21.385Z,17.54
2018-07-22T04:38:21.307Z,17.54
2018-07-22T04:39:21.267Z,17.54
2018-07-22T04:40:21.220Z,17.51
2018-07-22T04:41:21.175Z,17.42
2018-07-22T04:42:21.158Z,17.33
2018-07-22T04:43:21.083Z,17.31
2018-07-22T04:44:21.069Z,17.38
2018-07-22T04:45:20.989Z,17.39
2018-07-22T04:46:20.956Z,17.27
2018-07-22T04:47:20.933Z,17.24
2018-07-22T04:48:20.854Z,17.30
2018-07-22T04:49:20.840Z,17.26
2018-07-22T04:50:20.760Z,17.27
2018-07-22T04:51:20.750Z,17.31
2018-07-22T04:52:20.672Z,17.39
2018-07-22T04:53:20.627Z,17.38
2018-07-22T04:54:20.611Z,17.42
2018-07-22T04:55:20.536Z,17.39
2018-07-22T04:56:20.486Z,17.36
2018-07-22T04:57:20.442Z,17.44
2018-07-22T04:58:20.403Z,17.51
2018-07-22T04:59:20.386Z,17.52
2018-07-22T05:00:20.304Z,17.45
2018-07-22T05:01:20.266Z,17.45
2018-07-22T05:02:20.215Z,17.45
2018-07-22T05:03:20.220Z,17.29
2018-07-22T05:04:20.121Z,17.48
2018-07-22T05:05:20.080Z,17.27
2018-07-22T05:06:20.034Z,17.31
2018-07-22T05:07:19.992Z,17.26
2018-07-22T05:08:19.973Z,17.16
2018-07-22T05:09:19.897Z,17.12
2018-07-22T05:10:19.853Z,17.14
2018-07-22T05:11:19.803Z,17.12
2018-07-22T05:12:19.793Z,17.15
2018-07-22T05:13:19.713Z,17.15
2018-07-22T05:14:19.669Z,17.15
2018-07-22T05:15:19.621Z,17.04
2018-07-22T05:16:19.580Z,17.11
2018-07-22T05:17:19.567Z,17.20
2018-07-22T05:18:19.482Z,17.19
2018-07-22T05:19:19.476Z,17.16
2018-07-22T05:20:19.394Z,17.22
2018-07-22T05:21:19.350Z,17.11
2018-07-22T05:22:19.307Z,17.14
2018-07-22T05:23:19.256Z,17.20
2018-07-22T05:24:19.241Z,17.11
2018-07-22T05:25:19.166Z,17.16
2018-07-22T05:26:19.118Z,17.12
2018-07-22T05:27:19.070Z,17.19
2018-07-22T05:28:19.104Z,17.20
2018-07-22T05:29:19.013Z,17.22
2018-07-22T05:30:18.933Z,17.26
2018-07-22T05:31:18.922Z,17.34
2018-07-22T05:32:18.844Z,17.29
2018-07-22T05:33:18.798Z,17.44
2018-07-22T05:34:18.750Z,17.39
2018-07-22T05:35:18.709Z,17.49
2018-07-22T05:36:18.693Z,17.38
2018-07-22T05:37:18.613Z,17.33
2018-07-22T05:38:18.568Z,17.42
2018-07-22T05:39:18.527Z,17.49
2018-07-22T05:40:18.509Z,17.39
2018-07-22T05:41:18.429Z,17.46
2018-07-22T05:42:18.384Z,17.49
2018-07-22T05:43:18.370Z,17.54
2018-07-22T05:44:18.295Z,17.57
2018-07-22T05:45:18.248Z,17.56
2018-07-22T05:46:18.242Z,17.63
2018-07-22T05:47:18.158Z,17.74
2018-07-22T05:48:18.110Z,17.71
2018-07-22T05:49:18.063Z,17.72
2018-07-22T05:50:18.022Z,17.72
2018-07-22T05:51:18.014Z,17.68
2018-07-22T05:52:17.928Z,17.78
2018-07-22T05:53:17.885Z,17.79
2018-07-22T05:54:17.837Z,17.76
2018-07-22T05:55:17.800Z,17.71
2018-07-22T05:56:17.780Z,17.74
2018-07-22T05:57:17.740Z,17.82
2018-07-22T05:58:17.653Z,17.80
2018-07-22T05:59:17.612Z,17.86
2018-07-22T06:00:17.560Z,17.76
2018-07-22T06:01:17.518Z,17.79
2018-07-22T06:02:17.506Z,17.89
2018-07-22T06:03:17.439Z,17.85
2018-07-22T06:04:17.383Z,17.87
2018-07-22T06:05:17.368Z,17.86
2018-07-22T06:06:17.294Z,17.90
2018-07-22T06:07:17.243Z,17.87
2018-07-22T06:08:17.196Z,17.87
2018-07-22T06:09:17.157Z,17.89
2018-07-22T06:10:17.155Z,17.94
2018-07-22T06:11:17.065Z,17.92
2018-07-22T06:12:17.018Z,17.86
2018-07-22T06:13:16.973Z,17.95
2018-07-22T06:14:16.927Z,17.98
2018-07-22T06:15:16.934Z,18.00
2018-07-22T06:16:16.837Z,18.03
2018-07-22T06:17:16.794Z,18.01
2018-07-22T06:18:16.750Z,18.00
2018-07-22T06:19:16.701Z,18.07
2018-07-22T06:20:16.687Z,18.11
2018-07-22T06:21:16.610Z,18.05
2018-07-22T06:22:16.565Z,18.08
2018-07-22T06:23:16.611Z,18.10
2018-07-22T06:24:16.473Z,18.07
2018-07-22T06:25:16.468Z,18.04
2018-07-22T06:26:16.386Z,18.08
2018-07-22T06:27:16.959Z,18.19
2018-07-22T06:28:16.290Z,18.19
2018-07-22T06:29:16.284Z,18.10
2018-07-22T06:30:16.236Z,18.13
2018-07-22T06:31:16.155Z,18.20
2018-07-22T06:32:16.117Z,18.10
2018-07-22T06:33:16.082Z,18.20
2018-07-22T06:34:16.024Z,18.19
2018-07-22T06:35:16.117Z,18.34
2018-07-22T06:36:15.931Z,18.28
2018-07-22T06:37:15.885Z,18.28
2018-07-22T06:38:15.838Z,18.34
2018-07-22T06:39:15.801Z,18.31
2018-07-22T06:40:15.797Z,18.31
2018-07-22T06:41:15.785Z,18.33
2018-07-22T06:42:15.660Z,18.28
2018-07-22T06:43:15.615Z,18.40
2018-07-22T06:44:15.570Z,18.37
2018-07-22T06:45:15.555Z,18.37
2018-07-22T06:46:15.506Z,18.45
2018-07-22T06:47:15.435Z,18.50
2018-07-22T06:48:15.391Z,18.49
2018-07-22T06:49:15.345Z,18.49
2018-07-22T06:50:15.338Z,18.50
2018-07-22T06:51:15.257Z,18.53
2018-07-22T06:52:15.211Z,18.47
2018-07-22T06:53:15.160Z,18.45
2018-07-22T06:54:15.146Z,18.50
2018-07-22T06:55:15.109Z,18.52
2018-07-22T06:56:15.033Z,18.62
2018-07-22T06:57:15.019Z,18.62
2018-07-22T06:58:14.943Z,18.60
2018-07-22T06:59:14.898Z,18.60
2018-07-22T07:00:14.883Z,18.58
2018-07-22T07:01:14.801Z,18.59
2018-07-22T07:02:14.759Z,18.58
2018-07-22T07:03:14.716Z,18.70
2018-07-22T07:04:14.666Z,18.71
2018-07-22T07:05:14.696Z,18.78
2018-07-22T07:06:14.580Z,18.77
2018-07-22T07:07:14.534Z,18.81
2018-07-22T07:08:14.524Z,18.77
2018-07-22T07:09:14.446Z,18.92
2018-07-22T07:10:14.400Z,18.86
2018-07-22T07:11:14.356Z,18.88
2018-07-22T07:12:14.348Z,18.89
2018-07-22T07:13:14.272Z,18.93
2018-07-22T07:14:14.221Z,18.89
2018-07-22T07:15:14.207Z,18.92
2018-07-22T07:16:14.130Z,18.98
2018-07-22T07:17:14.123Z,18.98
2018-07-22T07:18:14.074Z,19.00
2018-07-22T07:19:13.997Z,19.04
2018-07-22T07:20:13.953Z,19.09
2018-07-22T07:21:13.911Z,19.04
2018-07-22T07:22:13.955Z,19.09
2018-07-22T07:23:13.817Z,19.08
2018-07-22T07:24:13.776Z,19.14
2018-07-22T07:25:13.732Z,19.11
2018-07-22T07:26:13.684Z,19.24
2018-07-22T07:27:13.673Z,19.26
2018-07-22T07:28:13.604Z,19.27
2018-07-22T07:29:13.552Z,19.31
2018-07-22T07:30:13.504Z,19.26
2018-07-22T07:31:13.462Z,19.26
2018-07-22T07:32:13.454Z,19.31
2018-07-22T07:33:13.419Z,19.29
2018-07-22T07:34:13.378Z,19.24
2018-07-22T07:35:13.286Z,19.26
2018-07-22T07:36:13.242Z,19.33
2018-07-22T07:37:13.195Z,19.27
2018-07-22T07:38:13.193Z,19.22
2018-07-22T07:39:13.149Z,19.27
2018-07-22T07:40:13.070Z,19.24
2018-07-22T07:41:13.018Z,19.30
2018-07-22T07:42:13.000Z,19.36
2018-07-22T07:43:12.933Z,19.34
2018-07-22T07:44:12.917Z,19.34
2018-07-22T07:45:12.841Z,19.40
2018-07-22T07:46:12.838Z,19.36
2018-07-22T07:47:12.759Z,19.41
2018-07-22T07:48:12.708Z,19.40
2018-07-22T07:49:12.694Z,19.44
2018-07-22T07:50:12.623Z,19.48
2018-07-22T07:51:12.576Z,19.45
2018-07-22T07:52:12.529Z,19.49
2018-07-22T07:53:12.487Z,19.52
2018-07-22T07:54:12.478Z,19.62
2018-07-22T07:55:12.402Z,19.63
2018-07-22T07:56:12.357Z,19.58
2018-07-22T07:57:12.316Z,19.67
2018-07-22T07:58:12.301Z,19.69
2018-07-22T07:59:12.257Z,19.69
2018-07-22T08:00:12.182Z,19.77
2018-07-22T08:01:12.132Z,19.81
2018-07-22T08:02:12.091Z,19.84
2018-07-22T08:03:12.047Z,19.86
2018-07-22T08:04:12.038Z,19.84
2018-07-22T08:05:11.956Z,19.91
2018-07-22T08:06:11.913Z,19.84
2018-07-22T08:07:11.869Z,19.85
2018-07-22T08:08:11.829Z,19.79
2018-07-22T08:09:11.819Z,19.79
2018-07-22T08:10:11.737Z,19.82
2018-07-22T08:11:11.727Z,19.85
2018-07-22T08:12:11.652Z,19.85
2018-07-22T08:13:11.607Z,19.86
2018-07-22T08:14:11.564Z,19.99
2018-07-22T08:15:11.519Z,20.03
2018-07-22T08:16:11.506Z,19.99
2018-07-22T08:17:11.433Z,19.99
2018-07-22T08:18:11.427Z,20.02
2018-07-22T08:19:11.378Z,20.16
2018-07-22T08:20:11.297Z,20.13
2018-07-22T08:21:11.255Z,20.14
2018-07-22T08:22:11.273Z,20.16
2018-07-22T08:23:11.199Z,20.22
2018-07-22T08:24:11.123Z,20.22
2018-07-22T08:25:11.082Z,20.22
2018-07-22T08:26:11.081Z,20.25
2018-07-22T08:27:11.014Z,20.36
2018-07-22T08:28:10.946Z,20.32
2018-07-22T08:29:10.940Z,20.39
2018-07-22T08:30:10.892Z,20.44
2018-07-22T08:31:10.817Z,20.58
2018-07-22T08:32:10.773Z,20.59
2018-07-22T08:33:10.731Z,20.84
2018-07-22T08:34:10.687Z,20.90
2018-07-22T08:35:10.677Z,20.92
2018-07-22T08:36:10.602Z,21.03
2018-07-22T08:37:10.555Z,21.05
2018-07-22T08:38:10.520Z,21.15
2018-07-22T08:39:10.503Z,21.20
2018-07-22T08:40:10.459Z,21.22
2018-07-22T08:41:10.384Z,21.39
2018-07-22T08:42:10.375Z,21.55
2018-07-22T08:43:10.303Z,21.72
2018-07-22T08:44:10.255Z,21.83
2018-07-22T08:45:10.208Z,21.98
2018-07-22T08:46:10.173Z,22.07
2018-07-22T08:47:10.158Z,22.02
2018-07-22T08:48:10.084Z,22.10
2018-07-22T08:49:10.039Z,21.99
2018-07-22T08:50:09.997Z,21.96
2018-07-22T08:51:09.958Z,22.00
2018-07-22T08:52:09.949Z,21.99
2018-07-22T08:53:09.916Z,22.04
2018-07-22T08:54:09.873Z,22.02
2018-07-22T08:55:09.784Z,22.02
2018-07-22T08:56:09.740Z,22.02
2018-07-22T08:57:09.698Z,22.08
2018-07-22T08:58:09.660Z,21.96
2018-07-22T08:59:09.646Z,21.99
2018-07-22T09:00:09.569Z,22.00
2018-07-22T09:01:09.557Z,22.00
2018-07-22T09:02:09.517Z,22.00
2018-07-22T09:03:09.521Z,21.96
2018-07-22T09:04:09.403Z,21.93
2018-07-22T09:05:09.391Z,21.83
2018-07-22T09:06:09.341Z,21.88
2018-07-22T09:07:09.284Z,21.82
2018-07-22T09:08:09.340Z,21.83
2018-07-22T09:09:09.203Z,21.80
2018-07-22T09:10:09.196Z,21.72
2018-07-22T09:11:09.125Z,21.66
2018-07-22T09:12:09.106Z,21.67
2018-07-22T09:13:09.020Z,21.72
2018-07-22T09:14:09.052Z,21.66
2018-07-22T09:15:08.941Z,21.67
2018-07-22T09:16:08.903Z,21.66
2018-07-22T09:17:08.885Z,21.70
2018-07-22T09:18:08.923Z,21.69
2018-07-22T09:19:08.799Z,21.66
2018-07-22T09:20:08.727Z,21.70
2018-07-22T09:21:08.723Z,21.79
2018-07-22T09:22:08.688Z,21.67
2018-07-22T09:23:08.596Z,21.72
2018-07-22T09:24:08.581Z,21.77
2018-07-22T09:25:08.638Z,21.66
2018-07-22T09:26:08.471Z,21.75
2018-07-22T09:27:08.476Z,21.76
2018-07-22T09:28:08.423Z,21.72
2018-07-22T09:29:08.358Z,21.75
2018-07-22T09:30:08.298Z,21.89
2018-07-22T09:31:08.270Z,21.80
2018-07-22T09:32:08.293Z,21.98
2018-07-22T09:33:08.209Z,21.98
2018-07-22T09:34:08.129Z,22.04
2018-07-22T09:35:08.089Z,22.04
2018-07-22T09:36:08.123Z,21.99
2018-07-22T09:37:08.062Z,22.04
2018-07-22T09:38:07.993Z,22.02
2018-07-22T09:39:07.955Z,22.11
2018-07-22T09:40:07.894Z,22.11
2018-07-22T09:41:07.840Z,22.07
2018-07-22T09:42:07.869Z,22.25
2018-07-22T09:43:07.792Z,22.20
2018-07-22T09:44:07.750Z,22.10
2018-07-22T09:45:07.699Z,22.02
2018-07-22T09:46:07.672Z,22.07
2018-07-22T09:47:08.554Z,22.10
2018-07-22T09:48:07.588Z,22.15
2018-07-22T09:49:07.520Z,22.13
2018-07-22T09:50:07.462Z,22.14
2018-07-22T09:51:07.435Z,22.13
2018-07-22T09:52:07.528Z,22.02
2018-07-22T09:53:07.425Z,21.99
2018-07-22T09:54:07.334Z,21.83
2018-07-22T09:55:07.315Z,21.85
2018-07-22T09:56:07.218Z,21.88
2018-07-22T09:57:07.283Z,21.89
2018-07-22T09:58:07.188Z,21.82
2018-07-22T09:59:07.092Z,21.95
2018-07-22T10:00:07.072Z,21.92
2018-07-22T10:01:07.121Z,21.99
2018-07-22T10:02:07.004Z,22.18
2018-07-22T10:03:06.915Z,22.23
2018-07-22T10:04:06.908Z,22.18
2018-07-22T10:05:06.896Z,22.17
2018-07-22T10:06:06.824Z,22.22
2018-07-22T10:07:06.780Z,22.28
2018-07-22T10:08:06.742Z,22.30
2018-07-22T10:09:06.717Z,22.35
2018-07-22T10:10:06.889Z,22.39
2018-07-22T10:11:06.655Z,22.33
2018-07-22T10:12:06.571Z,22.30
2018-07-22T10:13:06.611Z,22.32
2018-07-22T10:14:06.450Z,22.28
2018-07-22T10:15:06.470Z,22.18
2018-07-22T10:16:06.394Z,22.11
2018-07-22T10:17:06.372Z,22.07
2018-07-22T10:18:06.304Z,21.93
2018-07-22T10:19:06.243Z,21.95
2018-07-22T10:20:06.206Z,21.77
2018-07-22T10:21:06.157Z,21.89
2018-07-22T10:22:06.150Z,21.79
2018-07-22T10:23:06.072Z,21.88
2018-07-22T10:24:06.035Z,21.80
2018-07-22T10:25:05.987Z,21.95
2018-07-22T10:26:05.987Z,21.91
2018-07-22T10:27:05.907Z,21.93
2018-07-22T10:28:05.860Z,21.98
2018-07-22T10:29:05.823Z,21.95
2018-07-22T10:30:05.777Z,22.04
2018-07-22T10:31:05.776Z,22.02
2018-07-22T10:32:05.700Z,22.02
2018-07-22T10:33:05.669Z,22.11
2018-07-22T10:34:05.608Z,22.06
2018-07-22T10:35:05.569Z,22.00
2018-07-22T10:36:05.558Z,22.11
2018-07-22T10:37:05.483Z,21.95
2018-07-22T10:38:05.439Z,21.89
2018-07-22T10:39:05.399Z,21.77
2018-07-22T10:40:05.390Z,21.85
2018-07-22T10:41:05.313Z,21.88
2018-07-22T10:42:05.303Z,21.88
2018-07-22T10:43:05.263Z,21.76
2018-07-22T10:44:05.192Z,21.76
2018-07-22T10:45:05.150Z,21.69
2018-07-22T10:46:05.136Z,21.75
2018-07-22T10:47:05.066Z,21.80
2018-07-22T10:48:05.021Z,21.83
2018-07-22T10:49:04.977Z,21.98
2018-07-22T10:50:04.964Z,21.98
2018-07-22T10:51:04.964Z,22.02
2018-07-22T10:52:04.850Z,21.83
2018-07-22T10:53:04.814Z,21.73
2018-07-22T10:54:04.794Z,21.70
2018-07-22T10:55:04.759Z,21.55
2018-07-22T10:56:04.683Z,21.54
2018-07-22T10:57:04.650Z,21.50
2018-07-22T10:58:04.684Z,21.67
2018-07-22T10:59:04.558Z,21.76
2018-07-22T11:00:04.516Z,21.89
2018-07-22T11:01:04.476Z,21.98
2018-07-22T11:02:04.434Z,21.96
2018-07-22T11:03:04.421Z,22.10
2018-07-22T11:04:04.345Z,22.11
2018-07-22T11:05:04.366Z,22.14
2018-07-22T11:06:04.263Z,22.07
2018-07-22T11:07:04.225Z,22.08
2018-07-22T11:08:04.177Z,22.17
2018-07-22T11:09:04.141Z,22.20
2018-07-22T11:10:04.141Z,22.25
2018-07-22T11:11:04.052Z,22.26
2018-07-22T11:12:04.012Z,22.23
2018-07-22T11:13:03.969Z,22.28
2018-07-22T11:14:03.926Z,22.11
2018-07-22T11:15:03.924Z,22.22
2018-07-22T11:16:03.843Z,22.22
2018-07-22T11:17:03.802Z,22.26
2018-07-22T11:18:03.760Z,22.20
2018-07-22T11:19:03.720Z,22.11
2018-07-22T11:20:03.719Z,22.22
2018-07-22T11:21:03.702Z,22.18
2018-07-22T11:22:03.594Z,22.13
2018-07-22T11:23:03.551Z,22.23
2018-07-22T11:24:03.507Z,22.15
2018-07-22T11:25:03.497Z,21.98
2018-07-22T11:26:03.436Z,21.83
2018-07-22T11:27:03.386Z,21.79
2018-07-22T11:28:03.345Z,21.92
2018-07-22T11:29:03.366Z,22.06
2018-07-22T11:30:03.308Z,22.11
2018-07-22T11:31:03.221Z,22.29
2018-07-22T11:32:03.173Z,22.26
2018-07-22T11:33:03.137Z,22.04
2018-07-22T11:34:03.095Z,22.17
2018-07-22T11:35:03.094Z,22.22
2018-07-22T11:36:03.018Z,22.44
2018-07-22T11:37:02.966Z,22.57
2018-07-22T11:38:02.927Z,22.72
2018-07-22T11:39:02.887Z,23.03
2018-07-22T11:40:02.865Z,23.08
2018-07-22T11:41:02.834Z,23.09
2018-07-22T11:42:02.762Z,22.98
2018-07-22T11:43:02.719Z,22.94
2018-07-22T11:44:02.678Z,22.91
2018-07-22T11:45:02.675Z,23.00
2018-07-22T11:46:02.592Z,23.18
2018-07-22T11:47:02.550Z,23.13
2018-07-22T11:48:02.536Z,23.21
2018-07-22T11:49:02.475Z,23.31
2018-07-22T11:50:02.459Z,23.32
2018-07-22T11:51:02.386Z,23.32
2018-07-22T11:52:02.393Z,23.36
2018-07-22T11:53:02.303Z,23.51
2018-07-22T11:54:02.293Z,23.61
2018-07-22T11:55:02.253Z,23.51
2018-07-22T11:56:02.181Z,23.61
2018-07-22T11:57:02.143Z,23.50
2018-07-22T11:58:02.100Z,23.47
2018-07-22T11:59:02.057Z,23.46
2018-07-22T12:00:02.072Z,23.51
2018-07-22T12:01:01.987Z,23.58
2018-07-22T12:02:01.938Z,23.78
2018-07-22T12:03:01.894Z,23.96
2018-07-22T12:04:01.854Z,24.16
2018-07-22T12:05:01.869Z,24.21
2018-07-22T12:06:01.857Z,24.45
2018-07-22T12:07:01.734Z,24.40
2018-07-22T12:08:01.693Z,24.55
2018-07-22T12:09:01.654Z,24.40
2018-07-22T12:10:01.652Z,24.29
2018-07-22T12:11:01.604Z,24.01
2018-07-22T12:12:01.531Z,23.84
2018-07-22T12:13:01.491Z,23.84
2018-07-22T12:14:01.449Z,23.81
2018-07-22T12:15:01.450Z,23.95
2018-07-22T12:16:01.373Z,24.18
2018-07-22T12:17:01.332Z,24.16
2018-07-22T12:18:01.291Z,24.32
2018-07-22T12:19:01.247Z,24.28
2018-07-22T12:20:01.243Z,24.33
2018-07-22T12:21:01.166Z,24.54
2018-07-22T12:22:01.130Z,24.85
2018-07-22T12:23:01.090Z,25.04
2018-07-22T12:24:01.055Z,25.25
2018-07-22T12:25:01.046Z,25.50
2018-07-22T12:26:00.970Z,25.75
2018-07-22T12:27:00.929Z,25.88
2018-07-22T12:28:00.909Z,26.00
2018-07-22T12:29:00.897Z,26.22
2018-07-22T12:30:00.807Z,26.03
2018-07-22T12:31:00.769Z,25.75
2018-07-22T12:32:00.727Z,25.43
2018-07-22T12:33:00.767Z,25.18
2018-07-22T12:34:00.654Z,25.04
2018-07-22T12:35:00.612Z,24.92
2018-07-22T12:36:00.569Z,24.61
2018-07-22T12:37:00.532Z,24.48
2018-07-22T12:38:00.544Z,24.30
2018-07-22T12:39:00.455Z,24.40
2018-07-22T12:40:00.445Z,24.51
2018-07-22T12:41:00.378Z,24.69
2018-07-22T12:42:00.382Z,24.89
2018-07-22T12:43:00.294Z,24.95
2018-07-22T12:44:00.252Z,24.89
2018-07-22T12:45:00.263Z,24.93
2018-07-22T12:46:00.176Z,24.84
2018-07-22T12:47:00.135Z,24.74
2018-07-22T12:48:00.162Z,24.60
2018-07-22T12:49:00.120Z,24.36
2018-07-22T12:50:00.017Z,24.50
2018-07-22T12:51:00.012Z,24.53
2018-07-22T12:51:59.941Z,24.61